L'Anse-Saint-Jean, Canada
Current Conditions -  °F | °C
As of 1:00 PM on Friday 28 Nov 2014 (Local Time) from CYBG Reporting Station
Snow Showers Snow Showers  
Wind Chill:   Ceiling: 2000
Heat Index: 16°   Visibility: 1.2mi
Dew Point: 10°   Wind: 7mph
Humidity: 79%   Direction: 280°W
Pressure: 30.04"   Gusts: NA
Location:  48.23°N, 70.18°W
Report Text: CYBG 281800Z 28006KT 1 1/4SM -SHSN OVC020 M09/M12 A3004 RMK SN4SC4 /S01/ SLP187
Loading
Personal Weather Stations






























Interactive Weather Map New forecast layout! Learn more

10-Day Weather Forecast

Advertisements
Track Severe Weather on mobile